Time;durP1;ratioP1;P1;durP2;ratioP2;P2;SDS_P1;SDS_P2;PMS_P1;PMS_P2;Temp;Humidity;BMP_temperature;BMP_pressure;BME280_temperature;BME280_humidity;BME280_pressure;Samples;Min_cycle;Max_cycle;Signal;HPM_P1;HPM_P2
2023/03/22 00:01:46;;;;;;;94.10;50.00;;;;;;;4.31;85.21;100645.09;105373;1268;99009;-78
2023/03/22 00:04:32;;;;;;;92.60;48.70;;;;;;;4.29;85.15;100640.02;105443;1266;99107;-77
2023/03/22 00:07:17;;;;;;;91.10;48.90;;;;;;;4.26;84.87;100633.88;105465;1264;98003;-77
2023/03/22 00:10:04;;;;;;;87.80;45.50;;;;;;;4.23;84.91;100632.81;105500;1267;102617;-77
2023/03/22 00:12:50;;;;;;;80.90;46.00;;;;;;;4.19;84.68;100622.02;105438;1267;100354;-79
2023/03/22 00:15:36;;;;;;;77.40;44.40;;;;;;;4.18;84.88;100616.86;105456;1263;98428;-78
2023/03/22 00:18:22;;;;;;;79.50;44.50;;;;;;;4.17;85.15;100615.60;105421;1269;98881;-78
2023/03/22 00:21:15;;;;;;;90.60;49.90;;;;;;;4.16;85.41;100616.33;105538;1264;97699;-78
2023/03/22 00:24:00;;;;;;;100.20;52.30;;;;;;;4.15;85.28;100615.54;106206;1267;101361;-78
2023/03/22 00:26:46;;;;;;;97.60;51.00;;;;;;;4.13;85.25;100615.88;105006;1264;100235;-78
2023/03/22 00:29:33;;;;;;;87.70;49.90;;;;;;;4.12;85.35;100614.07;105408;1267;97901;-78
2023/03/22 00:32:19;;;;;;;95.80;51.50;;;;;;;4.12;85.36;100612.84;105558;1264;97911;-78
2023/03/22 00:35:05;;;;;;;104.20;52.20;;;;;;;4.11;85.31;100612.96;105543;1264;97907;-78
2023/03/22 00:37:50;;;;;;;96.40;51.80;;;;;;;4.09;85.30;100607.14;105396;1269;101379;-78
2023/03/22 00:40:36;;;;;;;97.80;51.80;;;;;;;4.06;85.40;100604.58;105303;1270;100493;-78
2023/03/22 00:43:21;;;;;;;101.90;54.20;;;;;;;4.02;85.32;100603.20;105416;1267;99316;-77
2023/03/22 00:46:10;;;;;;;98.30;52.50;;;;;;;3.98;84.90;100600.79;105228;1266;97957;-79
2023/03/22 00:48:56;;;;;;;96.30;54.40;;;;;;;3.96;85.21;100596.95;104919;1276;98755;-77
2023/03/22 00:51:41;;;;;;;92.30;52.20;;;;;;;3.93;85.16;100597.88;105128;1267;103085;-77
2023/03/22 00:54:27;;;;;;;89.90;50.20;;;;;;;3.91;85.29;100591.02;105539;1266;99813;-77
2023/03/22 00:57:13;;;;;;;85.60;49.70;;;;;;;3.91;85.40;100588.34;105430;1264;98077;-77
2023/03/22 01:00:06;;;;;;;89.30;49.30;;;;;;;3.93;85.84;100588.36;106762;1267;98679;-78
2023/03/22 01:02:52;;;;;;;81.90;47.30;;;;;;;3.94;86.32;100591.22;105488;1267;99142;-78
2023/03/22 01:05:38;;;;;;;93.80;50.80;;;;;;;3.95;86.34;100592.23;105477;1267;101350;-78
2023/03/22 01:08:24;;;;;;;87.80;47.70;;;;;;;3.93;86.20;100594.32;105461;1269;100346;-77
2023/03/22 01:11:10;;;;;;;90.80;48.60;;;;;;;3.90;86.15;100595.09;105279;1268;99077;-78
2023/03/22 01:13:56;;;;;;;91.00;48.10;;;;;;;3.89;86.12;100593.46;105341;1263;98082;-77
2023/03/22 01:16:41;;;;;;;87.30;48.40;;;;;;;3.86;85.83;100590.19;105360;1264;99715;-78
2023/03/22 01:19:27;;;;;;;88.00;47.20;;;;;;;3.82;85.80;100589.17;105507;1267;101398;-78
2023/03/22 01:22:13;;;;;;;80.70;45.00;;;;;;;3.78;85.38;100584.81;105355;1269;99931;-78
2023/03/22 01:24:59;;;;;;;79.90;45.00;;;;;;;3.73;85.24;100582.25;105471;1267;98952;-78
2023/03/22 01:27:45;;;;;;;83.20;43.90;;;;;;;3.70;85.44;100577.25;105273;1269;98005;-78
2023/03/22 01:30:30;;;;;;;76.70;41.70;;;;;;;3.67;85.47;100577.57;105417;1267;98454;-78
2023/03/22 01:33:16;;;;;;;74.50;40.60;;;;;;;3.65;85.59;100573.52;105262;1267;101397;-77
2023/03/22 01:36:02;;;;;;;71.20;41.60;;;;;;;3.63;85.54;100572.30;105233;1267;99117;-77
2023/03/22 01:38:48;;;;;;;69.30;39.60;;;;;;;3.60;85.27;100575.70;105206;1266;97976;-77
2023/03/22 01:41:36;;;;;;;73.60;40.00;;;;;;;3.57;85.33;100572.62;105201;1267;97973;-78
2023/03/22 01:44:29;;;;;;;65.80;38.20;;;;;;;3.54;85.42;100573.63;105282;1264;97901;-77
2023/03/22 01:47:14;;;;;;;75.80;41.00;;;;;;;3.51;85.38;100570.92;105182;1264;101371;-76
2023/03/22 01:50:00;;;;;;;69.00;39.00;;;;;;;3.47;85.47;100563.16;105362;1264;99876;-77
2023/03/22 01:52:48;;;;;;;67.50;39.20;;;;;;;3.45;85.68;100560.58;104978;1269;98851;-77
2023/03/22 01:55:40;;;;;;;68.40;38.60;;;;;;;3.42;85.58;100557.84;105430;1263;98060;-78
2023/03/22 01:58:37;;;;;;;68.40;37.50;;;;;;;3.37;85.46;100556.88;105684;1268;99639;-78
2023/03/22 02:01:23;;;;;;;64.20;36.60;;;;;;;3.32;85.67;100551.73;105439;1264;101389;-78
2023/03/22 02:04:14;;;;;;;61.30;37.10;;;;;;;3.29;85.65;100543.88;105598;1264;100413;-78
2023/03/22 02:07:14;;;;;;;65.40;37.50;;;;;;;3.27;85.84;100549.37;105556;1267;98009;-78
2023/03/22 02:10:00;;;;;;;66.30;37.50;;;;;;;3.25;86.13;100545.00;105373;1270;97979;-78
2023/03/22 02:13:18;;;;;;;67.20;38.20;;;;;;;3.22;86.04;100536.79;105565;1264;98519;-77
2023/03/22 02:16:48;;;;;;;63.40;37.90;;;;;;;3.19;86.08;100531.46;105431;1267;101408;-77
2023/03/22 02:20:11;;;;;;;60.30;36.00;;;;;;;3.16;86.28;100529.41;105309;1267;109804;-77
2023/03/22 02:23:12;;;;;;;71.30;39.60;;;;;;;3.15;86.56;100523.66;105660;1264;99023;-78
2023/03/22 02:26:42;;;;;;;73.70;39.50;;;;;;;3.15;86.44;100522.80;105469;1264;98590;-78
2023/03/22 02:29:52;;;;;;;76.10;40.50;;;;;;;3.09;86.37;100520.16;105707;1264;98038;-78
2023/03/22 02:33:07;;;;;;;68.80;40.10;;;;;;;3.03;86.12;100520.33;105848;1264;101390;-78
2023/03/22 02:36:18;;;;;;;71.90;38.40;;;;;;;2.99;85.96;100523.41;105518;1264;99191;-78
2023/03/22 02:39:33;;;;;;;67.30;39.60;;;;;;;2.94;86.15;100523.30;105507;1264;97971;-78
2023/03/22 02:42:39;;;;;;;66.20;37.90;;;;;;;2.91;86.44;100518.65;105492;1264;99362;-78
2023/03/22 02:45:33;;;;;;;62.90;36.50;;;;;;;2.89;86.57;100513.55;105440;1264;98502;-78
2023/03/22 02:48:54;;;;;;;62.80;34.90;;;;;;;2.89;86.43;100509.14;105523;1264;103403;-78
2023/03/22 02:51:49;;;;;;;57.20;33.10;;;;;;;2.90;86.60;100506.98;105507;1264;99674;-77
2023/03/22 02:54:56;;;;;;;53.00;30.40;;;;;;;2.90;86.88;100501.52;105500;1263;98921;-77
2023/03/22 02:57:49;;;;;;;58.70;33.90;;;;;;;2.91;86.95;100499.27;105583;1264;97987;-78
2023/03/22 03:00:38;;;;;;;59.40;34.10;;;;;;;2.93;87.26;100494.36;105308;1267;98000;-77
2023/03/22 03:03:28;;;;;;;56.60;34.30;;;;;;;2.95;87.36;100490.77;105334;1267;102612;-77
2023/03/22 03:06:20;;;;;;;58.60;33.40;;;;;;;2.97;87.26;100487.02;105618;1264;100577;-78
2023/03/22 03:09:07;;;;;;;65.30;36.40;;;;;;;2.97;87.46;100489.00;106022;1266;98735;-78
2023/03/22 03:11:53;;;;;;;64.00;35.30;;;;;;;2.95;87.68;100488.45;105496;1264;97880;-78
2023/03/22 03:14:39;;;;;;;59.80;34.60;;;;;;;2.95;87.91;100489.51;105517;1264;97974;-78
2023/03/22 03:17:39;;;;;;;62.40;33.20;;;;;;;2.97;87.88;100491.83;105496;1268;101369;-78
2023/03/22 03:20:48;;;;;;;60.40;31.50;;;;;;;2.96;87.86;100495.55;105554;1267;100334;-78
2023/03/22 03:23:56;;;;;;;58.60;33.20;;;;;;;2.94;87.67;100495.39;105544;1264;99016;-78
2023/03/22 03:26:55;;;;;;;56.30;32.00;;;;;;;2.90;87.44;100501.46;106087;1263;97981;-78
2023/03/22 03:29:47;;;;;;;60.70;32.80;;;;;;;2.85;87.19;100500.16;105694;1264;97968;-78
2023/03/22 03:32:45;;;;;;;57.90;33.70;;;;;;;2.81;86.95;100501.94;105664;1267;101385;-78
2023/03/22 03:35:38;;;;;;;61.40;33.30;;;;;;;2.77;86.99;100502.16;105591;1264;99143;-78
2023/03/22 03:38:28;;;;;;;64.70;35.10;;;;;;;2.75;86.91;100501.63;105575;1264;97982;-78
2023/03/22 03:41:19;;;;;;;62.30;34.10;;;;;;;2.74;86.71;100500.13;105439;1268;98076;-78
2023/03/22 03:44:05;;;;;;;61.40;32.60;;;;;;;2.71;86.59;100497.41;105685;1265;99192;-78
2023/03/22 03:46:52;;;;;;;59.60;33.90;;;;;;;2.69;86.58;100497.99;105668;1264;101405;-79
2023/03/22 03:49:38;;;;;;;66.40;35.10;;;;;;;2.66;86.57;100499.98;105563;1264;99850;-77
2023/03/22 03:52:25;;;;;;;62.50;32.90;;;;;;;2.63;86.36;100499.92;105645;1267;98164;-78
2023/03/22 03:55:10;;;;;;;64.60;34.60;;;;;;;2.60;86.46;100503.85;105546;1268;98012;-78
2023/03/22 03:57:56;;;;;;;60.60;32.60;;;;;;;2.59;86.45;100501.35;105416;1267;98072;-76
2023/03/22 04:00:43;;;;;;;58.90;32.90;;;;;;;2.59;86.87;100501.65;105763;1264;103107;-78
2023/03/22 04:03:41;;;;;;;63.20;34.00;;;;;;;2.59;86.83;100502.75;105313;1264;99113;-78
2023/03/22 04:06:33;;;;;;;55.50;31.60;;;;;;;2.58;86.69;100502.69;105634;1267;99016;-78
2023/03/22 04:09:19;;;;;;;55.50;31.70;;;;;;;2.54;86.60;100500.39;105609;1264;97869;-79
2023/03/22 04:12:08;;;;;;;55.70;31.10;;;;;;;2.51;86.45;100499.23;105409;1264;98162;-78
2023/03/22 04:14:54;;;;;;;58.30;31.90;;;;;;;2.50;86.28;100497.61;105530;1268;101931;-79
2023/03/22 04:17:42;;;;;;;56.00;31.70;;;;;;;2.46;86.29;100494.06;105633;1267;99130;-78
2023/03/22 04:20:28;;;;;;;57.60;32.90;;;;;;;2.45;86.50;100491.88;105668;1264;99035;-78
2023/03/22 04:23:15;;;;;;;63.30;32.40;;;;;;;2.45;86.49;100490.10;105577;1264;98108;-78
2023/03/22 04:26:04;;;;;;;66.70;31.50;;;;;;;2.44;86.44;100489.50;105579;1266;98476;-78
2023/03/22 04:28:57;;;;;;;83.60;34.40;;;;;;;2.44;86.69;100485.67;105635;1267;103095;-78
2023/03/22 04:31:44;;;;;;;79.30;35.80;;;;;;;2.46;87.61;100486.54;105620;1266;99205;-77
2023/03/22 04:34:46;;;;;;;63.30;31.20;;;;;;;2.51;88.20;100487.14;105668;1263;97942;-78
2023/03/22 04:37:34;;;;;;;61.60;29.90;;;;;;;2.56;88.84;100487.87;105214;1264;99254;-78
2023/03/22 04:40:46;;;;;;;63.00;31.70;;;;;;;2.60;89.03;100485.57;105638;1264;98768;-79
2023/03/22 04:43:45;;;;;;;61.40;30.20;;;;;;;2.63;89.18;100481.45;105546;1268;101384;-78
2023/03/22 04:46:35;;;;;;;55.60;31.00;;;;;;;2.64;89.31;100475.80;105537;1267;100378;-78
2023/03/22 04:49:23;;;;;;;55.60;29.90;;;;;;;2.67;89.66;100474.81;105580;1264;97972;-78
2023/03/22 04:52:09;;;;;;;57.30;29.10;;;;;;;2.71;89.75;100479.83;105721;1265;97969;-78
2023/03/22 04:54:56;;;;;;;52.60;28.00;;;;;;;2.73;89.74;100477.83;105651;1264;98000;-78
2023/03/22 04:57:41;;;;;;;48.70;26.70;;;;;;;2.76;89.87;100477.69;105978;1264;102607;-78
2023/03/22 05:00:29;;;;;;;53.50;29.90;;;;;;;2.79;89.91;100466.20;105527;1267;99236;-78
2023/03/22 05:03:18;;;;;;;47.20;27.20;;;;;;;2.81;90.00;100470.56;105514;1263;99484;-78
2023/03/22 05:06:06;;;;;;;51.70;26.80;;;;;;;2.84;90.32;100476.47;105587;1267;97889;-78
2023/03/22 05:09:00;;;;;;;44.50;26.90;;;;;;;2.87;90.45;100480.20;105597;1267;97909;-78
2023/03/22 05:11:46;;;;;;;45.60;25.90;;;;;;;2.91;90.35;100477.73;105477;1265;102623;-78
2023/03/22 05:14:40;;;;;;;45.90;25.70;;;;;;;2.93;90.27;100478.06;105652;1267;99101;-78
2023/03/22 05:17:26;;;;;;;44.60;25.50;;;;;;;2.94;90.42;100478.65;105447;1268;99210;-78
2023/03/22 05:20:14;;;;;;;46.90;26.70;;;;;;;2.98;90.67;100479.77;105642;1264;97988;-78
2023/03/22 05:23:04;;;;;;;40.70;26.00;;;;;;;3.01;90.79;100478.89;105620;1267;97862;-78
2023/03/22 05:25:51;;;;;;;44.20;25.30;;;;;;;3.05;91.02;100479.55;105621;1264;102286;-78
2023/03/22 05:28:37;;;;;;;44.40;26.10;;;;;;;3.10;91.07;100479.47;105997;1266;99121;-78
2023/03/22 05:31:28;;;;;;;44.70;25.60;;;;;;;3.16;91.57;100483.58;105569;1266;97980;-77
2023/03/22 05:34:19;;;;;;;46.70;27.00;;;;;;;3.21;91.95;100482.35;105390;1267;97993;-77
2023/03/22 05:37:05;;;;;;;51.40;26.20;;;;;;;3.26;92.03;100475.92;105377;1264;97993;-77
2023/03/22 05:40:08;;;;;;;44.60;26.50;;;;;;;3.28;92.34;100473.55;105656;1263;101347;-78
2023/03/22 05:43:00;;;;;;;44.50;24.80;;;;;;;3.32;92.34;100476.91;105975;1266;99099;-78
2023/03/22 05:45:47;;;;;;;47.60;26.10;;;;;;;3.36;92.45;100478.27;105396;1263;98848;-77
2023/03/22 05:48:46;;;;;;;43.70;24.10;;;;;;;3.39;92.63;100473.23;105414;1266;97095;-78
2023/03/22 05:51:40;;;;;;;43.70;25.00;;;;;;;3.43;92.56;100476.55;105574;1264;98407;-78
2023/03/22 05:54:26;;;;;;;47.10;27.40;;;;;;;3.46;92.42;100477.85;105652;1264;102649;-78
2023/03/22 05:57:12;;;;;;;51.90;29.70;;;;;;;3.49;92.22;100482.70;105653;1266;99071;-78
2023/03/22 05:59:57;;;;;;;57.90;31.40;;;;;;;3.52;91.95;100482.27;105560;1264;97867;-78
2023/03/22 06:02:49;;;;;;;51.60;29.70;;;;;;;3.57;92.22;100485.28;105578;1264;97975;-79
2023/03/22 06:05:36;;;;;;;42.20;25.40;;;;;;;3.64;92.57;100485.84;105535;1271;99758;-79
2023/03/22 06:08:22;;;;;;;42.70;24.50;;;;;;;3.73;93.52;100491.12;105697;1265;102628;-79
2023/03/22 06:11:09;;;;;;;37.50;22.20;;;;;;;3.83;94.51;100491.44;105544;1265;99120;-79
2023/03/22 06:13:55;;;;;;;43.30;24.50;;;;;;;3.92;94.89;100494.48;105450;1268;98086;-79
2023/03/22 06:16:46;;;;;;;43.20;26.70;;;;;;;3.99;95.27;100490.36;105722;1268;98057;-78
2023/03/22 06:19:31;;;;;;;46.40;25.50;;;;;;;4.07;95.88;100489.42;105762;1264;98867;-78
2023/03/22 06:22:20;;;;;;;39.40;23.20;;;;;;;4.16;96.60;100488.77;106108;1262;102611;-78
2023/03/22 06:25:08;;;;;;;35.20;21.60;;;;;;;4.25;97.15;100488.94;105667;1265;99109;-78
2023/03/22 06:27:58;;;;;;;41.90;23.70;;;;;;;4.34;97.23;100489.04;106632;1266;97890;-78
2023/03/22 06:30:46;;;;;;;39.30;23.40;;;;;;;4.44;97.75;100490.19;105607;1267;98033;-78
2023/03/22 06:33:41;;;;;;;39.00;23.80;;;;;;;4.54;98.20;100495.42;105497;1264;98416;-78
2023/03/22 06:36:41;;;;;;;38.50;23.30;;;;;;;4.63;98.71;100494.79;105410;1264;101407;-77
2023/03/22 06:39:32;;;;;;;39.90;23.70;;;;;;;4.73;98.95;100499.58;106713;1263;99937;-77
2023/03/22 06:42:18;;;;;;;38.10;22.00;;;;;;;4.80;99.07;100496.36;105175;1266;98431;-77
2023/03/22 06:45:06;;;;;;;40.40;24.10;;;;;;;4.87;99.32;100489.80;105050;1270;98550;-77
2023/03/22 06:47:55;;;;;;;41.00;24.20;;;;;;;4.95;99.41;100488.98;105152;1267;98503;-77
2023/03/22 06:50:40;;;;;;;63.00;31.90;;;;;;;5.04;99.59;100485.05;105293;1267;101357;-77
2023/03/22 06:53:32;;;;;;;43.00;25.80;;;;;;;5.14;99.72;100482.41;105263;1265;100489;-77
2023/03/22 06:56:18;;;;;;;42.40;24.20;;;;;;;5.25;99.98;100478.67;105261;1263;98354;-78
2023/03/22 06:59:07;;;;;;;39.20;23.60;;;;;;;5.35;100.00;100471.27;105216;1264;97975;-77
2023/03/22 07:01:52;;;;;;;40.00;23.40;;;;;;;5.45;100.00;100465.95;105137;1264;99564;-77
2023/03/22 07:04:38;;;;;;;41.70;25.10;;;;;;;5.56;100.00;100467.31;105399;1266;101407;-78
2023/03/22 07:07:24;;;;;;;42.30;23.80;;;;;;;5.68;100.00;100468.60;105631;1264;99218;-77
2023/03/22 07:10:09;;;;;;;46.40;25.60;;;;;;;5.79;100.00;100467.56;105530;1263;98451;-78
2023/03/22 07:12:55;;;;;;;40.40;24.20;;;;;;;5.91;100.00;100463.78;105453;1263;98157;-78
2023/03/22 07:15:40;;;;;;;42.10;25.70;;;;;;;6.04;100.00;100471.24;105444;1267;97952;-78
2023/03/22 07:18:45;;;;;;;43.80;27.20;;;;;;;6.18;100.00;100472.13;105514;1267;102612;-78
2023/03/22 07:21:30;;;;;;;45.10;25.70;;;;;;;6.29;100.00;100467.55;105411;1267;99784;-78
2023/03/22 07:24:19;;;;;;;39.30;24.10;;;;;;;6.41;100.00;100462.58;105475;1269;97961;-78
2023/03/22 07:27:06;;;;;;;42.00;24.60;;;;;;;6.51;100.00;100453.62;105550;1267;98044;-78
2023/03/22 07:29:51;;;;;;;39.90;25.40;;;;;;;6.59;100.00;100447.50;105543;1268;98485;-78
2023/03/22 07:32:40;;;;;;;35.80;22.20;;;;;;;6.66;100.00;100444.95;105512;1264;102003;-78
2023/03/22 07:35:29;;;;;;;40.20;24.10;;;;;;;6.72;100.00;100436.50;105771;1264;99241;-77
2023/03/22 07:38:15;;;;;;;38.90;23.90;;;;;;;6.77;100.00;100436.05;105481;1264;98438;-78
2023/03/22 07:41:01;;;;;;;38.10;22.90;;;;;;;6.83;100.00;100435.98;105663;1263;97882;-79
2023/03/22 07:43:57;;;;;;;43.00;24.90;;;;;;;6.89;100.00;100432.28;105646;1264;98484;-80
2023/03/22 07:46:43;;;;;;;64.60;39.80;;;;;;;6.94;100.00;100424.81;105547;1266;101387;-79
2023/03/22 07:49:39;;;;;;;55.00;32.50;;;;;;;6.99;100.00;100426.14;105662;1264;99951;-79
2023/03/22 07:52:32;;;;;;;40.10;25.80;;;;;;;7.06;100.00;100426.70;105717;1264;98742;-80
2023/03/22 07:55:18;;;;;;;38.70;24.00;;;;;;;7.12;100.00;100425.49;106449;1264;98476;-79
2023/03/22 07:58:04;;;;;;;46.20;30.10;;;;;;;7.18;100.00;100427.60;106487;1264;98531;-79
2023/03/22 08:00:50;;;;;;;45.40;26.90;;;;;;;7.27;100.00;100426.64;106261;1264;102651;-80
2023/03/22 08:03:54;;;;;;;38.20;24.10;;;;;;;7.35;100.00;100423.18;105956;1264;99943;-78
2023/03/22 08:06:59;;;;;;;36.10;23.90;;;;;;;7.45;100.00;100422.67;105327;1268;99015;-79
2023/03/22 08:09:49;;;;;;;39.20;25.40;;;;;;;7.53;100.00;100418.88;105406;1268;97904;-80
2023/03/22 08:12:35;;;;;;;36.30;22.80;;;;;;;7.60;100.00;100414.55;105519;1267;99413;-78
2023/03/22 08:15:36;;;;;;;36.70;22.40;;;;;;;7.66;100.00;100413.54;105574;1267;103017;-78
2023/03/22 08:18:22;;;;;;;36.20;23.50;;;;;;;7.71;100.00;100412.55;106949;1264;100329;-78
2023/03/22 08:21:10;;;;;;;40.10;24.90;;;;;;;7.78;100.00;100410.39;105989;1267;98149;-79
2023/03/22 08:23:56;;;;;;;34.80;22.60;;;;;;;7.85;100.00;100410.65;105334;1264;97977;-79
2023/03/22 08:27:07;;;;;;;32.40;21.00;;;;;;;7.92;100.00;100409.95;105550;1268;98366;-78
2023/03/22 08:30:04;;;;;;;30.00;20.70;;;;;;;8.00;100.00;100413.11;105474;1263;102649;-80
2023/03/22 08:32:50;;;;;;;35.30;22.50;;;;;;;8.05;100.00;100410.59;105463;1266;99084;-78
2023/03/22 08:35:36;;;;;;;35.70;21.50;;;;;;;8.10;100.00;100406.79;105374;1262;99104;-79
2023/03/22 08:38:22;;;;;;;41.50;27.10;;;;;;;8.15;100.00;100405.73;105334;1268;98072;-77
2023/03/22 08:41:11;;;;;;;43.60;27.10;;;;;;;8.19;100.00;100404.54;105332;1264;97930;-78
2023/03/22 08:43:57;;;;;;;41.90;26.10;;;;;;;8.23;99.98;100407.98;105374;1268;101334;-79
2023/03/22 08:46:46;;;;;;;40.10;24.50;;;;;;;8.26;99.93;100407.66;105347;1264;99165;-78
2023/03/22 08:49:31;;;;;;;39.70;23.60;;;;;;;8.29;99.64;100405.05;105418;1268;99143;-78
2023/03/22 08:52:22;;;;;;;39.60;24.40;;;;;;;8.31;99.63;100405.08;105437;1264;99985;-75
2023/03/22 08:55:16;;;;;;;41.30;25.70;;;;;;;8.34;99.76;100406.95;105136;1266;97812;-77
2023/03/22 08:58:22;;;;;;;39.60;25.50;;;;;;;8.36;99.83;100403.42;105228;1264;102631;-78
2023/03/22 09:01:16;;;;;;;38.10;24.00;;;;;;;8.39;99.68;100402.58;105344;1266;99067;-77
2023/03/22 09:04:12;;;;;;;37.30;24.10;;;;;;;8.42;99.84;100405.09;105120;1264;99492;-77
2023/03/22 09:06:58;;;;;;;42.20;26.00;;;;;;;8.45;99.96;100403.95;105029;1268;97897;-78
2023/03/22 09:09:43;;;;;;;46.20;25.90;;;;;;;8.50;99.87;100399.03;105096;1265;97952;-78
2023/03/22 09:12:29;;;;;;;43.70;26.50;;;;;;;8.53;99.84;100395.52;104648;1267;102193;-77
2023/03/22 09:15:15;;;;;;;44.30;26.70;;;;;;;8.60;99.91;100395.10;105118;1267;100385;-78
2023/03/22 09:18:04;;;;;;;42.60;26.70;;;;;;;8.67;100.00;100390.74;105746;1264;98048;-77
2023/03/22 09:20:50;;;;;;;39.60;25.30;;;;;;;8.73;99.98;100386.20;105002;1266;98000;-78
2023/03/22 09:23:38;;;;;;;41.40;27.40;;;;;;;8.77;99.93;100384.73;104912;1268;99249;-76
2023/03/22 09:26:24;;;;;;;44.80;27.80;;;;;;;8.82;99.84;100381.34;105061;1264;102426;-78
2023/03/22 09:29:13;;;;;;;42.60;28.10;;;;;;;8.85;99.75;100383.73;105107;1264;100370;-78
2023/03/22 09:31:58;;;;;;;46.10;27.40;;;;;;;8.89;99.56;100387.91;105106;1267;97897;-78
2023/03/22 09:34:48;;;;;;;46.10;27.00;;;;;;;8.93;98.94;100389.98;105136;1267;97954;-76
2023/03/22 09:37:33;;;;;;;43.50;25.60;;;;;;;8.96;98.80;100386.75;105023;1264;98439;-76
2023/03/22 09:40:24;;;;;;;44.60;28.30;;;;;;;9.00;98.81;100381.43;105564;1264;102518;-77
2023/03/22 09:43:50;;;;;;;48.30;28.40;;;;;;;9.04;98.23;100377.09;105098;1264;100358;-77
2023/03/22 09:46:43;;;;;;;45.10;26.70;;;;;;;9.06;97.76;100377.67;105166;1264;97980;-84
2023/03/22 09:49:35;;;;;;;45.00;27.50;;;;;;;9.10;97.56;100378.63;105168;1264;97920;-78
2023/03/22 09:52:20;;;;;;;42.50;27.00;;;;;;;9.15;97.83;100380.92;105333;1267;97863;-77
2023/03/22 09:55:17;;;;;;;42.00;27.00;;;;;;;9.20;97.82;100383.60;105210;1264;102299;-77
2023/03/22 09:58:20;;;;;;;47.50;28.60;;;;;;;9.26;97.43;100383.98;105137;1264;100336;-78
2023/03/22 10:01:39;;;;;;;46.50;26.70;;;;;;;9.31;97.57;100381.91;105484;1264;97914;-82
2023/03/22 10:04:28;;;;;;;41.10;26.10;;;;;;;9.36;97.38;100379.39;105943;1264;97892;-82
2023/03/22 10:07:33;;;;;;;43.50;27.10;;;;;;;9.40;97.16;100380.71;105878;1263;98521;-80
2023/03/22 10:10:22;;;;;;;47.00;26.40;;;;;;;9.44;97.24;100376.34;105439;1268;102630;-81
2023/03/22 10:13:31;;;;;;;41.30;24.90;;;;;;;9.48;96.98;100373.71;105795;1264;99144;-81
2023/03/22 10:16:32;;;;;;;43.30;25.30;;;;;;;9.51;96.58;100369.35;105761;1264;98743;-81
2023/03/22 10:19:52;;;;;;;39.20;25.00;;;;;;;9.54;96.50;100365.27;105628;1264;97995;-81
2023/03/22 10:22:43;;;;;;;43.80;26.10;;;;;;;9.58;96.45;100365.52;105754;1262;96394;-84
2023/03/22 10:25:37;;;;;;;39.80;24.80;;;;;;;9.61;96.09;100362.28;105730;1264;102157;-80
2023/03/22 10:28:28;;;;;;;42.70;26.30;;;;;;;9.65;96.07;100363.80;105854;1264;100836;-79
2023/03/22 10:31:20;;;;;;;46.80;27.00;;;;;;;9.67;96.08;100366.31;105758;1265;99059;-77
2023/03/22 10:35:15;;;;;;;;;;;;;;;;;;;;;
2023/03/22 10:38:31;;;;;;;35.90;21.40;;;;;;;9.71;95.78;100357.94;105705;1262;98596;-80
2023/03/22 10:41:39;;;;;;;34.20;21.00;;;;;;;9.73;95.20;100353.27;100360;1267;7215199;-78
2023/03/22 10:44:27;;;;;;;35.50;22.00;;;;;;;9.74;95.06;100349.64;106109;1264;100795;-80
2023/03/22 10:47:20;;;;;;;33.30;22.00;;;;;;;9.76;95.45;100348.73;105673;1265;98009;-77
2023/03/22 10:50:35;;;;;;;33.90;21.20;;;;;;;9.76;95.05;100343.83;105421;1267;98413;-84
2023/03/22 10:53:37;;;;;;;36.10;22.00;;;;;;;9.77;94.87;100341.50;105919;1264;101365;-82
2023/03/22 10:56:23;;;;;;;33.50;20.90;;;;;;;9.79;94.84;100344.00;106309;1264;99116;-79
2023/03/22 10:59:40;;;;;;;31.80;19.40;;;;;;;9.81;94.56;100343.41;105540;1264;98046;-84
2023/03/22 11:02:30;;;;;;;34.60;21.00;;;;;;;9.83;94.19;100339.23;106043;1264;97965;-84
2023/03/22 11:05:35;;;;;;;36.80;21.50;;;;;;;9.86;94.65;100337.58;105739;1266;98435;-83
2023/03/22 11:08:20;;;;;;;33.80;20.50;;;;;;;9.91;94.65;100332.98;105721;1265;102551;-81
2023/03/22 11:11:16;;;;;;;36.00;21.20;;;;;;;9.97;94.57;100333.14;105887;1266;100392;-83
2023/03/22 11:14:43;;;;;;;35.70;22.90;;;;;;;10.04;94.37;100330.33;106234;1266;98436;-83
2023/03/22 11:17:30;;;;;;;37.70;21.80;;;;;;;10.14;94.63;100327.90;105746;1264;97888;-85
2023/03/22 11:20:18;;;;;;;35.40;21.00;;;;;;;10.26;94.70;100323.16;106102;1267;97985;-86
2023/03/22 11:23:06;;;;;;;36.50;22.50;;;;;;;10.38;94.53;100317.19;105786;1265;101493;-82
2023/03/22 11:25:58;;;;;;;37.10;22.40;;;;;;;10.51;94.60;100316.44;105702;1263;100479;-83
2023/03/22 11:28:49;;;;;;;34.00;22.40;;;;;;;10.65;94.53;100312.77;105787;1267;97940;-84
2023/03/22 11:31:59;;;;;;;37.50;22.50;;;;;;;10.78;94.42;100309.29;105725;1280;97980;-92
2023/03/22 11:34:45;;;;;;;33.00;20.80;;;;;;;10.89;94.08;100304.70;105863;1263;96473;-80
2023/03/22 11:37:30;;;;;;;37.30;22.80;;;;;;;10.98;93.71;100294.42;105613;1266;101363;-82
2023/03/22 11:40:18;;;;;;;36.20;22.40;;;;;;;11.12;94.08;100293.67;105861;1266;99555;-85
2023/03/22 11:43:16;;;;;;;37.80;22.00;;;;;;;11.28;94.03;100295.73;106008;1263;97863;-88
2023/03/22 11:46:03;;;;;;;40.00;22.80;;;;;;;11.42;94.05;100295.96;105753;1264;96369;-88
2023/03/22 11:48:55;;;;;;;37.20;22.10;;;;;;;11.55;93.29;100293.30;105814;1265;98455;-79
2023/03/22 11:51:41;;;;;;;36.30;21.80;;;;;;;11.73;93.19;100289.97;105271;1266;101367;-85
2023/03/22 11:54:34;;;;;;;36.10;23.60;;;;;;;11.93;93.28;100287.51;105660;1264;101333;-83
2023/03/22 11:57:25;;;;;;;32.90;21.40;;;;;;;12.12;93.07;100280.19;105597;1265;98086;-83
2023/03/22 12:00:18;;;;;;;37.20;22.30;;;;;;;12.31;92.84;100275.10;105710;1264;98045;-84
2023/03/22 12:03:17;;;;;;;35.50;22.10;;;;;;;12.49;92.45;100272.16;105798;1265;97897;-85
2023/03/22 12:06:25;;;;;;;34.00;22.50;;;;;;;12.61;92.14;100269.48;105822;1265;102584;-83
2023/03/22 12:09:43;;;;;;;33.50;21.80;;;;;;;12.71;91.67;100266.79;105776;1265;99334;-82
2023/03/22 12:12:39;;;;;;;;;;;;;;;12.82;91.03;100266.02;105839;1267;98986;-84
2023/03/22 12:15:34;;;;;;;33.50;21.70;;;;;;;12.89;91.03;100260.55;105710;1267;97936;-85
2023/03/22 12:18:40;;;;;;;35.30;22.60;;;;;;;12.97;90.60;100260.25;105936;1265;98470;-82
2023/03/22 12:21:39;;;;;;;35.40;23.60;;;;;;;13.03;90.19;100257.31;105901;1268;101334;-82
2023/03/22 12:24:29;;;;;;;34.60;22.60;;;;;;;13.11;90.24;100250.40;105822;1263;99962;-84
2023/03/22 12:27:20;;;;;;;29.40;21.40;;;;;;;13.22;90.05;100247.67;105940;1264;99058;-84
2023/03/22 12:30:11;;;;;;;;;;;;;;;13.31;89.71;100249.22;105939;1266;98047;-82
2023/03/22 12:33:09;;;;;;;30.50;20.50;;;;;;;13.33;89.31;100247.18;105926;1266;98289;-81
2023/03/22 12:36:00;;;;;;;37.40;22.00;;;;;;;13.37;88.98;100248.13;105858;1270;101371;-85
2023/03/22 12:38:58;;;;;;;28.80;20.00;;;;;;;13.40;88.89;100249.11;105725;1268;102911;-83
2023/03/22 12:41:48;;;;;;;34.60;20.60;;;;;;;13.45;88.75;100252.72;105651;1264;99031;-84
2023/03/22 12:44:43;;;;;;;31.00;19.60;;;;;;;13.48;88.29;100250.92;105771;1266;97959;-85
2023/03/22 12:47:40;;;;;;;28.80;19.60;;;;;;;13.50;87.81;100244.55;105609;1264;97988;-84
2023/03/22 12:50:55;;;;;;;33.20;21.60;;;;;;;13.58;88.48;100236.34;106149;1263;101395;-85
2023/03/22 12:53:46;;;;;;;37.50;23.60;;;;;;;13.75;88.43;100233.17;105841;1268;100725;-87
2023/03/22 12:56:37;;;;;;;31.70;21.30;;;;;;;13.88;88.28;100228.30;105751;1269;99423;-83
2023/03/22 12:59:27;;;;;;;29.20;20.30;;;;;;;14.00;88.14;100225.48;105723;1265;97971;-85
2023/03/22 13:02:18;;;;;;;30.30;21.10;;;;;;;14.14;87.78;100226.80;105626;1264;98035;-88